Terminal Aerodrome Forecast
Issued by NWS

Home | Current Version | Previous Version | Text Only | Print | Product List | Glossary On
Versions: 1 2 3 4 5 6 7 8 9 10 11 12 13 14 15 16 17 18 19 20 21 22 23 24 25 26
000
FTUS41 KCAR 201700
TAFFVE
TAF
KFVE 201726Z 2018/2118 17010G17KT P6SM -RA OVC027
     FM210100 19011KT P6SM VCSH OVC020
     FM211000 19012KT P6SM SCT008
     FM211600 20015KT P6SM BKN025=

USA.gov is the U.S. government's official web portal to all federal, state and local government web resources and services.